createdAt,value
2019-02-26T00:02:50.675Z,70.67
2019-02-26T00:05:21.406Z,70.73
2019-02-26T00:07:49.215Z,70.96
2019-02-26T00:10:14.828Z,70.74
2019-02-26T00:12:43.519Z,70.51
2019-02-26T00:15:12.146Z,70.86
2019-02-26T00:17:43.162Z,71.12
2019-02-26T00:20:10.962Z,70.96
2019-02-26T00:22:39.046Z,70.80
2019-02-26T00:25:08.479Z,70.97
2019-02-26T00:27:35.387Z,70.99
2019-02-26T00:30:14.318Z,71.25
2019-02-26T00:32:41.850Z,71.15
2019-02-26T00:35:10.482Z,71.18
2019-02-26T00:37:39.490Z,71.14
2019-02-26T00:40:10.121Z,71.32
2019-02-26T00:42:37.122Z,71.23
2019-02-26T00:45:07.894Z,71.03
2019-02-26T00:47:36.286Z,71.48
2019-02-26T00:50:05.129Z,71.28
2019-02-26T00:52:32.654Z,71.16
2019-02-26T00:55:03.053Z,71.29
2019-02-26T00:57:31.714Z,71.55
2019-02-26T01:00:00.736Z,71.28
2019-02-26T01:02:26.968Z,71.33
2019-02-26T01:04:55.602Z,71.50
2019-02-26T01:07:25.968Z,71.58
2019-02-26T01:09:54.600Z,71.73
2019-02-26T01:12:21.769Z,71.68
2019-02-26T01:14:50.657Z,71.26
2019-02-26T01:17:19.245Z,71.48
2019-02-26T01:19:48.230Z,71.06
2019-02-26T01:22:17.131Z,70.57
2019-02-26T01:24:47.617Z,70.13
2019-02-26T01:27:14.391Z,69.99
2019-02-26T01:29:44.549Z,69.79
2019-02-26T01:32:15.166Z,69.84
2019-02-26T01:34:42.576Z,69.35
2019-02-26T01:37:10.325Z,69.16
2019-02-26T01:39:42.178Z,68.35
2019-02-26T01:42:07.041Z,68.42
2019-02-26T01:44:38.081Z,67.68
2019-02-26T01:47:04.994Z,66.89
2019-02-26T01:49:33.621Z,66.63
2019-02-26T01:52:02.235Z,66.53
2019-02-26T01:54:32.977Z,66.85
2019-02-26T01:56:59.484Z,67.25
2019-02-26T01:59:28.103Z,67.56
2019-02-26T02:01:56.732Z,67.85
2019-02-26T02:04:25.349Z,67.62
2019-02-26T02:06:54.941Z,67.35
2019-02-26T02:09:24.970Z,67.25
2019-02-26T02:11:51.598Z,66.63
2019-02-26T02:14:20.191Z,65.72
2019-02-26T02:16:49.085Z,65.46
2019-02-26T02:19:20.052Z,64.98
2019-02-26T02:21:47.645Z,64.39
2019-02-26T02:24:17.474Z,64.07
2019-02-26T02:26:47.515Z,63.77
2019-02-26T02:29:14.997Z,63.98
2019-02-26T02:31:41.786Z,63.52
2019-02-26T02:34:10.413Z,63.35
2019-02-26T02:36:39.040Z,63.45
2019-02-26T02:39:10.713Z,63.39
2019-02-26T02:41:39.132Z,63.85
2019-02-26T02:44:04.964Z,63.85
2019-02-26T02:46:34.133Z,64.23
2019-02-26T02:49:04.727Z,64.23
2019-02-26T02:51:33.465Z,64.65
2019-02-26T02:53:59.851Z,65.47
2019-02-26T02:56:30.758Z,66.38
2019-02-26T02:58:57.114Z,66.84
2019-02-26T03:01:28.570Z,66.81
2019-02-26T03:03:57.928Z,67.45
2019-02-26T03:06:24.259Z,67.76
2019-02-26T03:08:53.530Z,68.82
2019-02-26T03:11:21.687Z,68.82
2019-02-26T03:13:51.252Z,68.84
2019-02-26T03:16:21.343Z,69.06
2019-02-26T03:18:47.606Z,69.62
2019-02-26T03:21:17.676Z,69.70
2019-02-26T03:23:45.605Z,69.35
2019-02-26T03:26:15.135Z,70.01
2019-02-26T03:28:44.451Z,70.12
2019-02-26T03:31:10.796Z,70.31
2019-02-26T03:33:39.400Z,70.56
2019-02-26T03:36:10.927Z,70.69
2019-02-26T03:38:36.650Z,71.01
2019-02-26T03:41:05.360Z,71.01
2019-02-26T03:43:34.742Z,71.05
2019-02-26T03:46:02.955Z,71.30
2019-02-26T03:48:31.605Z,71.26
2019-02-26T03:51:01.281Z,71.48
2019-02-26T03:53:31.403Z,71.31
2019-02-26T03:56:01.922Z,71.13
2019-02-26T03:58:26.494Z,71.03
2019-02-26T04:00:55.140Z,70.93
2019-02-26T04:03:23.782Z,71.10
2019-02-26T04:05:52.419Z,71.24
2019-02-26T04:08:22.505Z,71.41
2019-02-26T04:10:52.738Z,71.52
2019-02-26T04:15:59.592Z,71.50
2019-02-26T04:18:26.014Z,71.49
2019-02-26T04:20:56.828Z,71.48
2019-02-26T04:23:23.557Z,71.53
2019-02-26T04:26:10.975Z,71.45
2019-02-26T04:31:29.722Z,71.69
2019-02-26T04:36:59.110Z,71.48
2019-02-26T04:42:41.008Z,71.66
2019-02-26T04:50:35.508Z,71.95
2019-02-26T04:53:05.106Z,71.76
2019-02-26T04:55:34.994Z,71.72
2019-02-26T04:57:59.588Z,71.84
2019-02-26T05:00:30.388Z,72.02
2019-02-26T05:02:56.908Z,72.08
2019-02-26T05:05:27.792Z,72.10
2019-02-26T05:07:54.750Z,72.06
2019-02-26T05:10:26.442Z,72.02
2019-02-26T05:12:56.197Z,72.10
2019-02-26T05:15:23.085Z,72.50
2019-02-26T05:17:49.276Z,72.61
2019-02-26T05:20:18.962Z,72.65
2019-02-26T05:22:46.544Z,72.54
2019-02-26T05:25:19.203Z,72.62
2019-02-26T05:27:46.051Z,72.57
2019-02-26T05:30:16.490Z,72.63
2019-02-26T05:32:42.106Z,72.73
2019-02-26T05:35:11.582Z,73.22
2019-02-26T05:37:40.989Z,73.25
2019-02-26T05:40:10.398Z,73.12
2019-02-26T05:42:36.950Z,73.12
2019-02-26T05:45:06.875Z,73.02
2019-02-26T05:47:34.235Z,73.21
2019-02-26T05:50:06.245Z,72.79
2019-02-26T05:52:33.224Z,72.30
2019-02-26T05:55:00.513Z,71.52
2019-02-26T05:57:32.509Z,70.94
2019-02-26T05:59:57.753Z,71.03
2019-02-26T06:02:26.338Z,70.89
2019-02-26T06:04:54.960Z,71.15
2019-02-26T06:07:26.967Z,71.38
2019-02-26T06:09:54.240Z,71.58
2019-02-26T06:12:21.193Z,72.14
2019-02-26T06:14:51.486Z,72.49
2019-02-26T06:17:19.821Z,72.79
2019-02-26T06:19:47.407Z,73.27
2019-02-26T06:22:18.132Z,72.68
2019-02-26T06:24:44.665Z,72.64
2019-02-26T06:27:15.872Z,72.76
2019-02-26T06:29:41.920Z,72.89
2019-02-26T06:32:11.989Z,73.14
2019-02-26T06:34:39.505Z,73.20
2019-02-26T06:37:23.773Z,73.52
2019-02-26T06:39:54.830Z,73.52
2019-02-26T06:42:21.065Z,73.60
2019-02-26T06:44:51.437Z,73.18
2019-02-26T06:47:18.641Z,73.38
2019-02-26T06:49:48.538Z,73.56
2019-02-26T06:52:17.979Z,73.32
2019-02-26T06:57:23.730Z,72.42
2019-02-26T06:59:55.126Z,72.19
2019-02-26T07:02:21.022Z,71.82
2019-02-26T07:04:50.032Z,71.70
2019-02-26T07:07:18.674Z,71.31
2019-02-26T07:09:47.294Z,70.66
2019-02-26T07:12:17.033Z,69.70
2019-02-26T07:14:46.443Z,69.41
2019-02-26T07:17:13.209Z,69.50
2019-02-26T07:19:41.812Z,69.70
2019-02-26T07:22:11.666Z,69.83
2019-02-26T07:24:41.189Z,69.71
2019-02-26T07:27:09.156Z,70.01
2019-02-26T07:29:40.025Z,70.07
2019-02-26T07:32:05.647Z,70.55
2019-02-26T07:34:34.206Z,71.16
2019-02-26T07:37:04.258Z,70.52
2019-02-26T07:39:31.811Z,69.55
2019-02-26T07:42:00.440Z,68.63
2019-02-26T07:44:29.055Z,67.49
2019-02-26T07:46:58.826Z,67.19
2019-02-26T07:49:26.335Z,66.17
2019-02-26T07:51:56.076Z,65.96
2019-02-26T07:54:23.592Z,65.41
2019-02-26T07:56:54.617Z,64.63
2019-02-26T07:59:27.462Z,64.58
2019-02-26T08:01:49.776Z,64.29
2019-02-26T08:04:18.525Z,63.74
2019-02-26T08:06:47.067Z,62.64
2019-02-26T08:09:17.002Z,61.94
2019-02-26T08:11:48.488Z,61.71
2019-02-26T08:14:14.337Z,60.72
2019-02-26T08:16:42.274Z,59.65
2019-02-26T08:19:10.888Z,58.48
2019-02-26T08:21:39.543Z,57.06
2019-02-26T08:24:10.619Z,57.20
2019-02-26T08:26:38.615Z,57.20
2019-02-26T08:29:07.580Z,56.60
2019-02-26T08:31:34.475Z,56.60
2019-02-26T08:34:03.101Z,56.86
2019-02-26T08:39:14.962Z,56.27
2019-02-26T08:41:39.555Z,56.27
2019-02-26T08:44:08.222Z,56.80
2019-02-26T08:46:37.835Z,56.80
2019-02-26T08:49:08.261Z,56.38
2019-02-26T08:51:34.115Z,55.77
2019-02-26T08:54:03.083Z,56.16
2019-02-26T08:59:10.307Z,54.83
2019-02-26T09:01:38.964Z,54.53
2019-02-26T09:04:07.577Z,54.11
2019-02-26T09:09:15.355Z,52.16
2019-02-26T09:11:44.366Z,52.84
2019-02-26T09:14:14.144Z,51.59
2019-02-26T09:16:42.329Z,51.77
2019-02-26T09:19:11.320Z,50.89
2019-02-26T09:21:42.542Z,51.48
2019-02-26T09:24:08.593Z,50.71
2019-02-26T09:26:37.234Z,49.20
2019-02-26T09:29:05.861Z,48.93
2019-02-26T09:31:34.480Z,49.21
2019-02-26T09:34:03.125Z,48.50
2019-02-26T09:39:12.675Z,46.61
2019-02-26T09:41:40.321Z,46.72
2019-02-26T09:44:09.654Z,46.80
2019-02-26T09:46:39.334Z,46.86
2019-02-26T09:49:09.888Z,46.11
2019-02-26T09:51:35.239Z,46.13
2019-02-26T09:54:03.118Z,45.50
2019-02-26T09:59:13.021Z,44.95
2019-02-26T10:01:40.754Z,44.49
2019-02-26T10:04:07.852Z,45.01
2019-02-26T10:06:37.894Z,45.46
2019-02-26T10:09:05.223Z,45.22
2019-02-26T10:11:34.095Z,44.13
2019-02-26T10:14:04.859Z,44.36
2019-02-26T10:19:12.495Z,43.76
2019-02-26T10:21:39.996Z,43.59
2019-02-26T10:24:07.540Z,43.84
2019-02-26T10:26:38.603Z,43.77
2019-02-26T10:29:05.033Z,42.62
2019-02-26T10:31:33.773Z,42.46
2019-02-26T10:34:03.144Z,42.25
2019-02-26T10:36:34.724Z,42.30
2019-02-26T10:39:00.736Z,42.02
2019-02-26T10:41:28.336Z,40.89
2019-02-26T10:43:56.994Z,41.32
2019-02-26T10:46:25.627Z,40.22
2019-02-26T10:48:54.272Z,40.49
2019-02-26T10:51:26.084Z,40.35
2019-02-26T10:53:51.829Z,40.19
2019-02-26T10:56:20.715Z,39.66
2019-02-26T10:58:49.378Z,39.72
2019-02-26T11:01:22.775Z,39.55
2019-02-26T11:03:47.285Z,38.00
2019-02-26T11:06:17.387Z,37.42
2019-02-26T11:08:43.948Z,36.97
2019-02-26T11:11:13.964Z,34.59
2019-02-26T11:13:43.511Z,33.75
2019-02-26T11:16:09.855Z,33.28
2019-02-26T11:18:39.810Z,30.91
2019-02-26T11:21:07.132Z,32.67
2019-02-26T11:23:36.315Z,31.59
2019-02-26T11:26:06.505Z,30.37
2019-02-26T11:28:37.903Z,30.61
2019-02-26T11:31:01.696Z,28.55
2019-02-26T11:33:30.593Z,28.88
2019-02-26T11:35:59.628Z,28.81
2019-02-26T11:38:27.943Z,29.08
2019-02-26T11:40:56.562Z,29.05
2019-02-26T11:43:26.978Z,26.34
2019-02-26T11:45:53.855Z,28.77
2019-02-26T11:48:23.373Z,30.22
2019-02-26T11:50:51.155Z,29.87
2019-02-26T11:53:19.793Z,27.80
2019-02-26T11:55:51.387Z,28.45
2019-02-26T11:58:19.880Z,29.96
2019-02-26T12:00:49.622Z,30.67
2019-02-26T12:03:14.583Z,29.45
2019-02-26T12:05:43.207Z,30.68
2019-02-26T12:08:14.485Z,28.98
2019-02-26T12:10:41.143Z,29.10
2019-02-26T12:13:09.778Z,29.74
2019-02-26T12:15:41.477Z,28.96
2019-02-26T12:18:07.065Z,27.40
2019-02-26T12:20:37.971Z,27.90
2019-02-26T12:23:04.622Z,26.93
2019-02-26T12:25:33.549Z,27.07
2019-02-26T12:28:02.948Z,26.67
2019-02-26T12:30:32.382Z,27.65
2019-02-26T12:32:59.733Z,29.24
2019-02-26T12:35:29.697Z,29.35
2019-02-26T12:37:59.368Z,28.69
2019-02-26T12:40:25.660Z,29.24
2019-02-26T12:42:54.326Z,29.18
2019-02-26T12:45:25.615Z,29.34
2019-02-26T12:47:54.935Z,28.70
2019-02-26T12:52:59.092Z,26.27
2019-02-26T12:55:31.614Z,26.91
2019-02-26T12:57:59.401Z,24.89
2019-02-26T13:00:25.267Z,24.61
2019-02-26T13:02:53.904Z,23.54
2019-02-26T13:05:23.188Z,22.13
2019-02-26T13:07:51.214Z,22.45
2019-02-26T13:10:26.245Z,23.14
2019-02-26T13:12:59.289Z,24.18
2019-02-26T13:15:23.501Z,23.02
2019-02-26T13:20:26.715Z,22.70
2019-02-26T13:22:58.716Z,22.43
2019-02-26T13:25:26.766Z,22.90
2019-02-26T13:27:52.976Z,23.00
2019-02-26T13:30:24.206Z,23.39
2019-02-26T13:33:00.410Z,22.80
2019-02-26T13:35:22.595Z,22.31
2019-02-26T13:37:50.494Z,22.71
2019-02-26T13:45:26.665Z,22.45
2019-02-26T13:48:00.975Z,22.36
2019-02-26T13:53:08.568Z,21.55
2019-02-26T13:55:37.215Z,21.59
2019-02-26T13:58:11.712Z,21.77
2019-02-26T14:00:34.797Z,22.18
2019-02-26T14:03:04.204Z,20.91
2019-02-26T14:05:37.941Z,21.91
2019-02-26T14:08:01.002Z,21.64
2019-02-26T14:10:29.995Z,22.70
2019-02-26T14:12:58.721Z,23.25
2019-02-26T14:18:05.664Z,25.19
2019-02-26T14:20:34.312Z,25.78
2019-02-26T14:23:02.953Z,24.63
2019-02-26T14:25:31.600Z,24.39
2019-02-26T14:28:00.509Z,25.34
2019-02-26T14:30:29.159Z,25.53
2019-02-26T14:32:58.085Z,25.95
2019-02-26T14:35:27.079Z,24.23
2019-02-26T14:37:55.716Z,25.00
2019-02-26T14:40:24.372Z,24.65
2019-02-26T14:42:53.007Z,25.52
2019-02-26T14:48:00.219Z,25.99
2019-02-26T14:50:28.874Z,25.83
2019-02-26T14:52:57.493Z,25.58
2019-02-26T14:55:26.151Z,24.45
2019-02-26T14:57:54.783Z,24.82
2019-02-26T15:00:23.747Z,25.80
2019-02-26T15:02:52.731Z,25.84
2019-02-26T15:05:21.385Z,26.36
2019-02-26T15:07:50.013Z,25.79
2019-02-26T15:10:20.482Z,25.96
2019-02-26T15:12:47.578Z,26.11
2019-02-26T15:15:16.237Z,25.91
2019-02-26T15:17:44.871Z,25.25
2019-02-26T15:20:16.702Z,24.74
2019-02-26T15:22:45.607Z,24.91
2019-02-26T15:25:17.450Z,25.24
2019-02-26T15:27:46.074Z,25.50
2019-02-26T15:32:56.385Z,25.01
2019-02-26T15:35:25.027Z,25.75
2019-02-26T15:37:53.648Z,25.05
2019-02-26T15:40:22.307Z,26.08
2019-02-26T15:42:53.068Z,26.51
2019-02-26T15:45:24.041Z,26.64
2019-02-26T15:47:51.302Z,26.78
2019-02-26T15:50:19.949Z,26.84
2019-02-26T15:52:52.750Z,27.53
2019-02-26T15:58:03.002Z,27.91
2019-02-26T16:00:27.067Z,28.95
2019-02-26T16:02:59.040Z,29.47
2019-02-26T16:05:33.868Z,29.84
2019-02-26T16:08:02.860Z,30.68
2019-02-26T16:10:31.497Z,30.91
2019-02-26T16:13:00.196Z,31.13
2019-02-26T16:15:29.115Z,31.84
2019-02-26T16:17:59.032Z,33.01
2019-02-26T16:20:27.103Z,34.09
2019-02-26T16:22:55.748Z,35.16
2019-02-26T16:25:24.707Z,36.07
2019-02-26T16:27:53.899Z,36.41
2019-02-26T16:30:24.918Z,37.18
2019-02-26T16:32:53.529Z,37.49
2019-02-26T16:35:24.762Z,37.79
2019-02-26T16:37:50.794Z,38.46
2019-02-26T16:40:19.431Z,38.73
2019-02-26T16:42:48.060Z,39.14
2019-02-26T16:45:25.332Z,40.05
2019-02-26T16:47:53.967Z,41.22
2019-02-26T16:53:01.431Z,41.47
2019-02-26T16:55:30.075Z,41.70
2019-02-26T16:58:02.228Z,42.41
2019-02-26T17:00:30.298Z,42.28
2019-02-26T17:03:00.769Z,43.25
2019-02-26T17:05:27.909Z,43.67
2019-02-26T17:07:56.882Z,44.48
2019-02-26T17:10:29.391Z,44.43
2019-02-26T17:12:54.150Z,44.50
2019-02-26T17:15:25.556Z,44.12
2019-02-26T17:17:51.423Z,44.73
2019-02-26T17:20:22.442Z,45.27
2019-02-26T17:22:48.691Z,45.57
2019-02-26T17:25:17.318Z,46.03
2019-02-26T17:27:45.947Z,46.41
2019-02-26T17:30:17.206Z,46.59
2019-02-26T17:32:46.125Z,46.32
2019-02-26T17:35:15.077Z,46.49
2019-02-26T17:37:43.724Z,46.57
2019-02-26T17:40:12.342Z,46.91
2019-02-26T17:42:40.984Z,47.18
2019-02-26T17:45:09.603Z,47.11
2019-02-26T17:47:38.596Z,47.32
2019-02-26T17:50:09.645Z,47.55
2019-02-26T17:52:36.236Z,47.82
2019-02-26T17:55:05.164Z,47.85
2019-02-26T17:57:34.666Z,47.84
2019-02-26T18:00:02.702Z,48.07
2019-02-26T18:02:31.332Z,48.49
2019-02-26T18:05:00.762Z,48.04
2019-02-26T18:07:28.893Z,48.62
2019-02-26T18:09:57.512Z,47.99
2019-02-26T18:12:26.156Z,47.97
2019-02-26T18:14:56.120Z,47.97
2019-02-26T18:17:24.032Z,47.98
2019-02-26T18:19:52.923Z,48.54
2019-02-26T18:22:22.284Z,48.59
2019-02-26T18:24:50.203Z,48.00
2019-02-26T19:02:18.014Z,50.46
2019-02-26T19:24:35.874Z,51.29
2019-02-26T19:27:03.492Z,51.31
2019-02-26T19:41:12.658Z,52.04
2019-02-26T20:06:26.169Z,53.75
2019-02-26T20:08:53.703Z,53.65
2019-02-26T20:11:23.663Z,53.50
2019-02-26T20:16:35.502Z,53.71
2019-02-26T20:19:05.679Z,53.88
2019-02-26T20:21:35.643Z,53.56
2019-02-26T20:24:05.722Z,53.97
2019-02-26T20:26:35.673Z,54.12
2019-02-26T20:29:07.811Z,54.27
2019-02-26T20:31:36.000Z,54.11
2019-02-26T20:34:06.682Z,54.48
2019-02-26T20:36:36.115Z,54.30
2019-02-26T20:39:07.915Z,54.34
2019-02-26T20:41:36.203Z,54.43
2019-02-26T20:44:07.837Z,54.59
2019-02-26T20:46:36.304Z,54.62
2019-02-26T20:49:06.402Z,54.81
2019-02-26T20:51:36.629Z,54.78
2019-02-26T20:54:06.614Z,55.02
2019-02-26T20:56:36.877Z,55.03
2019-02-26T20:59:06.865Z,55.19
2019-02-26T21:01:36.851Z,55.16
2019-02-26T21:04:06.828Z,55.40
2019-02-26T21:06:36.795Z,55.31
2019-02-26T21:11:46.026Z,55.39
2019-02-26T21:14:16.306Z,55.36
2019-02-26T21:16:46.620Z,55.74
2019-02-26T21:19:16.592Z,55.59
2019-02-26T21:21:48.884Z,55.43
2019-02-26T21:24:16.877Z,55.86
2019-02-26T21:26:46.841Z,55.38
2019-02-26T21:29:17.113Z,55.77
2019-02-26T21:31:47.079Z,55.79
2019-02-26T21:34:17.348Z,56.03
2019-02-26T21:36:47.848Z,56.08
2019-02-26T21:39:17.997Z,56.23
2019-02-26T21:41:48.205Z,56.38
2019-02-26T21:44:18.178Z,56.11
2019-02-26T21:46:48.442Z,56.34
2019-02-26T21:49:18.405Z,56.31
2019-02-26T21:51:48.364Z,56.31
2019-02-26T21:54:18.335Z,56.14
2019-02-26T21:56:48.886Z,56.27
2019-02-26T21:59:18.262Z,56.22
2019-02-26T22:01:48.228Z,56.63
2019-02-26T22:04:18.190Z,56.82
2019-02-26T22:06:48.143Z,56.85
2019-02-26T22:09:18.109Z,57.24
2019-02-26T22:11:50.422Z,57.17
2019-02-26T22:16:57.141Z,57.06
2019-02-26T22:19:27.345Z,56.85
2019-02-26T22:21:57.290Z,56.94
2019-02-26T22:24:27.314Z,57.08
2019-02-26T22:27:00.141Z,57.15
2019-02-26T22:29:27.610Z,57.29
2019-02-26T22:31:59.762Z,57.20
2019-02-26T22:34:28.264Z,57.12
2019-02-26T22:36:58.227Z,57.12
2019-02-26T22:39:28.496Z,57.23
2019-02-26T22:41:58.464Z,57.31
2019-02-26T22:44:28.739Z,57.25
2019-02-26T22:46:59.223Z,57.10
2019-02-26T22:49:28.925Z,57.46
2019-02-26T22:51:59.116Z,57.84
2019-02-26T22:54:28.855Z,57.82
2019-02-26T22:56:59.076Z,57.76
2019-02-26T22:59:29.354Z,57.66
2019-02-26T23:01:59.292Z,57.44
2019-02-26T23:04:29.449Z,57.41
2019-02-26T23:06:59.578Z,57.09
2019-02-26T23:09:29.902Z,57.38
2019-02-26T23:12:00.223Z,57.38
2019-02-26T23:14:30.196Z,57.68
2019-02-26T23:17:00.158Z,57.56
2019-02-26T23:19:30.177Z,58.10
2019-02-26T23:22:00.482Z,58.10
2019-02-26T23:24:30.462Z,58.27
2019-02-26T23:27:00.429Z,58.34
2019-02-26T23:29:30.416Z,57.97
2019-02-26T23:32:00.379Z,58.14
2019-02-26T23:34:30.350Z,58.47
2019-02-26T23:37:01.002Z,58.89
2019-02-26T23:39:30.295Z,58.89
2019-02-26T23:42:00.230Z,58.67
2019-02-26T23:44:30.523Z,58.67
2019-02-26T23:47:02.101Z,58.72
2019-02-26T23:49:30.758Z,58.59
2019-02-26T23:52:00.706Z,58.68
2019-02-26T23:54:30.672Z,58.60
2019-02-26T23:57:00.630Z,58.76
2019-02-26T23:59:30.592Z,58.72
